Time;durP1;ratioP1;P1;durP2;ratioP2;P2;SDS_P1;SDS_P2;PMS_P1;PMS_P2;Temp;Humidity;BMP_temperature;BMP_pressure;BME280_temperature;BME280_humidity;BME280_pressure;Samples;Min_cycle;Max_cycle;Signal;HPM_P1;HPM_P2
2023/10/01 00:00:08;;;;;;;11.30;8.60;;;17.50;99.90;;;;;;5022086;28;21109;-76
2023/10/01 00:02:34;;;;;;;12.43;8.70;;;17.50;99.90;;;;;;5028496;28;20409;-77
2023/10/01 00:04:59;;;;;;;13.50;9.03;;;17.50;99.90;;;;;;5020558;28;20503;-76
2023/10/01 00:07:27;;;;;;;12.03;8.23;;;17.40;99.90;;;;;;5020723;28;20502;-77
2023/10/01 00:09:52;;;;;;;12.30;8.23;;;17.40;99.90;;;;;;5025065;28;20204;-78
2023/10/01 00:12:18;;;;;;;11.80;8.80;;;17.50;99.90;;;;;;5022688;28;20518;-77
2023/10/01 00:14:44;;;;;;;10.77;8.07;;;17.50;99.90;;;;;;5021662;28;20242;-76
2023/10/01 00:17:09;;;;;;;13.43;8.77;;;17.50;99.90;;;;;;5035964;28;20264;-76
2023/10/01 00:19:38;;;;;;;12.20;8.40;;;17.50;99.90;;;;;;5022601;28;20195;-75
2023/10/01 00:22:04;;;;;;;11.73;8.83;;;17.50;99.90;;;;;;5022335;28;20757;-76
2023/10/01 00:24:29;;;;;;;13.33;8.10;;;17.50;99.90;;;;;;5021184;28;20537;-77
2023/10/01 00:26:55;;;;;;;10.60;8.10;;;17.50;99.90;;;;;;5023715;28;20510;-77
2023/10/01 00:29:22;;;;;;;12.20;9.13;;;17.50;99.90;;;;;;5021428;28;20206;-77
2023/10/01 00:31:49;;;;;;;16.10;9.20;;;17.50;99.90;;;;;;5027054;28;20187;-77
2023/10/01 00:34:15;;;;;;;12.13;8.70;;;17.40;99.90;;;;;;5024010;28;20445;-77
2023/10/01 00:36:43;;;;;;;13.40;8.80;;;17.40;99.90;;;;;;5024131;28;20438;-77
2023/10/01 00:39:09;;;;;;;12.80;8.90;;;17.40;99.90;;;;;;5026365;28;20534;-78
2023/10/01 00:41:35;;;;;;;10.87;8.00;;;17.40;99.90;;;;;;5023253;28;20488;-78
2023/10/01 00:44:02;;;;;;;11.93;7.70;;;17.40;99.90;;;;;;5004185;28;20451;-78
2023/10/01 00:46:29;;;;;;;10.60;8.23;;;17.40;99.90;;;;;;5021774;28;20238;-76
2023/10/01 00:48:55;;;;;;;10.97;8.50;;;17.40;99.90;;;;;;5021016;28;20459;-77
2023/10/01 00:51:21;;;;;;;13.20;9.03;;;17.40;99.90;;;;;;5021148;28;20428;-77
2023/10/01 00:53:49;;;;;;;11.77;7.90;;;17.30;99.90;;;;;;5021179;28;20411;-77
2023/10/01 00:56:15;;;;;;;10.40;8.40;;;17.30;99.90;;;;;;5020033;28;20234;-77
2023/10/01 00:58:40;;;;;;;13.50;8.77;;;17.30;99.90;;;;;;5022661;28;20848;-76
2023/10/01 01:01:08;;;;;;;15.50;9.90;;;17.30;99.90;;;;;;5021673;28;20434;-77
2023/10/01 01:03:35;;;;;;;12.07;8.20;;;17.20;99.90;;;;;;5030267;28;20247;-77
2023/10/01 01:08:33;;;;;;;13.63;8.53;;;17.20;99.90;;;;;;5025174;28;20438;-77
2023/10/01 01:11:04;;;;;;;11.77;8.40;;;17.20;99.90;;;;;;5027758;28;20914;-77
2023/10/01 01:13:33;;;;;;;12.40;8.03;;;17.10;99.90;;;;;;5026150;28;20446;-77
2023/10/01 01:16:00;;;;;;;12.10;8.40;;;17.10;99.90;;;;;;5029578;28;20506;-76
2023/10/01 01:18:26;;;;;;;16.43;9.00;;;17.10;99.90;;;;;;4996512;28;20827;-76
2023/10/01 01:20:58;;;;;;;15.80;9.67;;;17.10;99.90;;;;;;5021028;28;20423;-77
2023/10/01 01:23:24;;;;;;;11.23;7.93;;;17.10;99.90;;;;;;5016144;28;20433;-76
2023/10/01 01:25:54;;;;;;;13.60;9.37;;;17.10;99.90;;;;;;5022169;28;20469;-77
2023/10/01 01:28:27;;;;;;;15.27;9.70;;;17.10;99.90;;;;;;5016576;28;20169;-76
2023/10/01 01:31:01;;;;;;;13.47;9.53;;;17.10;99.90;;;;;;5018358;28;20419;-77
2023/10/01 01:33:31;;;;;;;16.70;10.13;;;17.10;99.90;;;;;;5030461;28;20941;-77
2023/10/01 01:35:58;;;;;;;15.17;10.30;;;17.10;99.90;;;;;;5004471;28;20435;-78
2023/10/01 01:38:24;;;;;;;12.13;9.10;;;17.10;99.90;;;;;;5024108;28;20420;-77
2023/10/01 01:40:53;;;;;;;10.90;8.90;;;17.10;99.90;;;;;;5006685;28;20577;-78
2023/10/01 01:43:22;;;;;;;11.93;10.17;;;17.10;99.90;;;;;;5016926;28;20443;-78
2023/10/01 01:45:55;;;;;;;12.20;9.30;;;17.00;99.90;;;;;;5024390;28;20439;-79
2023/10/01 01:48:30;;;;;;;13.23;9.70;;;17.00;99.90;;;;;;5006009;28;20520;-78
2023/10/01 01:51:00;;;;;;;14.17;10.70;;;17.00;99.90;;;;;;5020370;28;20465;-78
2023/10/01 01:53:34;;;;;;;17.00;10.30;;;17.00;99.90;;;;;;5020668;28;20431;-78
2023/10/01 01:56:16;;;;;;;17.33;9.80;;;17.00;99.90;;;;;;5022770;28;20443;-78
2023/10/01 01:58:43;;;;;;;11.70;9.30;;;17.00;99.90;;;;;;5024685;28;20525;-77
2023/10/01 02:01:17;;;;;;;16.20;9.60;;;16.90;99.90;;;;;;5020003;28;20473;-78
2023/10/01 02:03:46;;;;;;;12.50;9.30;;;16.90;99.90;;;;;;5000007;28;20961;-77
2023/10/01 02:06:13;;;;;;;17.90;10.17;;;16.90;99.90;;;;;;5019650;28;20486;-77
2023/10/01 02:08:54;;;;;;;13.37;9.63;;;16.90;99.90;;;;;;5018653;28;20830;-77
2023/10/01 02:11:21;;;;;;;12.63;8.10;;;16.80;99.90;;;;;;5020244;28;20420;-76
2023/10/01 02:13:51;;;;;;;11.63;8.90;;;16.80;99.90;;;;;;5018547;28;20481;-77
2023/10/01 02:16:19;;;;;;;14.93;8.67;;;16.80;99.90;;;;;;5017646;28;20424;-77
2023/10/01 02:18:56;;;;;;;13.57;9.13;;;16.80;99.90;;;;;;5018323;28;20439;-77
2023/10/01 02:21:44;;;;;;;14.73;9.77;;;16.80;99.90;;;;;;5019684;28;20438;-77
2023/10/01 02:24:19;;;;;;;10.87;8.73;;;16.80;99.90;;;;;;5022148;28;20447;-76
2023/10/01 02:26:48;;;;;;;14.40;9.73;;;16.70;99.90;;;;;;5014126;28;20442;-77
2023/10/01 02:29:14;;;;;;;14.63;10.07;;;16.50;99.90;;;;;;5020619;28;20485;-77
2023/10/01 02:32:04;;;;;;;13.87;9.60;;;16.50;99.90;;;;;;5014502;28;20434;-77
2023/10/01 02:34:31;;;;;;;11.50;9.63;;;16.30;99.90;;;;;;5019376;28;20294;-77
2023/10/01 02:36:58;;;;;;;15.30;9.60;;;16.30;99.90;;;;;;5017266;28;20467;-77
2023/10/01 02:39:29;;;;;;;12.13;9.20;;;16.20;99.90;;;;;;5030518;28;20910;-77
2023/10/01 02:44:32;;;;;;;12.97;10.00;;;16.20;99.90;;;;;;5018015;28;20450;-77
2023/10/01 02:47:08;;;;;;;20.53;10.27;;;16.10;99.90;;;;;;5023144;28;20562;-76
2023/10/01 02:49:34;;;;;;;13.93;9.63;;;16.10;99.90;;;;;;5004465;28;20803;-77
2023/10/01 02:52:03;;;;;;;13.90;9.40;;;16.00;99.90;;;;;;5019955;28;20435;-77
2023/10/01 02:54:29;;;;;;;13.93;9.57;;;16.00;99.90;;;;;;5021236;28;20233;-77
2023/10/01 02:57:40;;;;;;;11.07;9.17;;;16.10;99.90;;;;;;5016891;28;20430;-78
2023/10/01 03:00:20;;;;;;;14.47;9.90;;;16.10;99.90;;;;;;5009596;28;20437;-76
2023/10/01 03:02:33;;;;;;;13.50;9.67;;;16.10;99.90;;;;;;5015306;28;20427;-77
2023/10/01 03:05:07;;;;;;;13.13;9.40;;;16.10;99.90;;;;;;5020792;28;20462;-76
2023/10/01 03:07:38;;;;;;;14.27;9.23;;;16.00;99.90;;;;;;5016967;28;20505;-77
2023/10/01 03:10:27;;;;;;;11.80;8.30;;;16.00;99.90;;;;;;5001462;28;20467;-78
2023/10/01 03:12:57;;;;;;;12.53;9.37;;;16.00;99.90;;;;;;5015546;28;20704;-77
2023/10/01 03:15:34;;;;;;;16.87;10.37;;;15.80;99.90;;;;;;5029403;28;20543;-77
2023/10/01 03:18:08;;;;;;;12.23;8.80;;;15.80;99.90;;;;;;5000005;28;21015;-77
2023/10/01 03:23:25;;;;;;;14.90;9.07;;;15.70;99.90;;;;;;5014168;28;20826;-77
2023/10/01 03:26:07;;;;;;;13.30;8.90;;;15.70;99.90;;;;;;4995633;28;20492;-77
2023/10/01 03:29:14;;;;;;;12.20;8.57;;;15.70;99.90;;;;;;5020862;28;20848;-77
2023/10/01 03:31:22;;;;;;;13.97;9.60;;;15.80;99.90;;;;;;5015262;28;21067;-77
2023/10/01 03:33:53;;;;;;;13.80;9.60;;;15.80;99.90;;;;;;5016312;28;20454;-77
2023/10/01 03:36:25;;;;;;;11.50;7.70;;;15.70;99.90;;;;;;5019714;28;20415;-77
2023/10/01 03:38:57;;;;;;;14.33;9.30;;;15.70;99.90;;;;;;5016698;28;20514;-76
2023/10/01 03:41:24;;;;;;;13.13;8.93;;;15.70;99.90;;;;;;5017367;28;20442;-77
2023/10/01 03:43:55;;;;;;;14.30;8.53;;;15.70;99.90;;;;;;5016957;28;20476;-76
2023/10/01 03:46:31;;;;;;;15.60;8.50;;;15.70;99.90;;;;;;5021279;28;20974;-76
2023/10/01 03:48:57;;;;;;;10.30;7.83;;;15.70;99.90;;;;;;5028637;28;20470;-76
2023/10/01 03:51:52;;;;;;;10.60;8.53;;;15.60;99.90;;;;;;4998641;28;20423;-76
2023/10/01 03:54:20;;;;;;;11.73;7.97;;;15.60;99.90;;;;;;5014773;28;20442;-76
2023/10/01 03:57:00;;;;;;;12.93;8.07;;;15.60;99.90;;;;;;5015546;28;20442;-76
2023/10/01 03:59:27;;;;;;;15.60;8.47;;;15.70;99.90;;;;;;5013145;28;20466;-76
2023/10/01 04:02:00;;;;;;;11.70;7.90;;;15.70;99.90;;;;;;5014924;28;20472;-76
2023/10/01 04:04:56;;;;;;;10.60;7.87;;;15.60;99.90;;;;;;5016872;28;20451;-75
2023/10/01 04:07:18;;;;;;;13.63;7.67;;;15.70;99.90;;;;;;5028117;28;20679;-77
2023/10/01 04:09:51;;;;;;;10.47;7.17;;;15.70;99.90;;;;;;5008336;28;20482;-76
2023/10/01 04:12:20;;;;;;;11.17;6.97;;;15.70;99.90;;;;;;5023216;28;20173;-75
2023/10/01 04:14:49;;;;;;;9.77;6.97;;;15.70;99.90;;;;;;5006600;28;20542;-74
2023/10/01 04:17:25;;;;;;;11.50;7.97;;;15.60;99.90;;;;;;5030128;28;20456;-74
2023/10/01 04:20:00;;;;;;;11.60;8.37;;;15.60;99.90;;;;;;5002122;28;20435;-75
2023/10/01 04:22:29;;;;;;;11.83;6.37;;;15.60;99.90;;;;;;5021984;28;20430;-75
2023/10/01 04:25:01;;;;;;;10.23;7.03;;;15.60;99.90;;;;;;5014013;28;20454;-76
2023/10/01 04:27:30;;;;;;;12.07;7.50;;;15.60;99.90;;;;;;5020032;28;20431;-76
2023/10/01 04:30:00;;;;;;;15.37;7.67;;;15.60;99.90;;;;;;5012771;28;20469;-76
2023/10/01 04:32:29;;;;;;;13.20;8.70;;;15.50;99.90;;;;;;5021727;28;20453;-78
2023/10/01 04:35:01;;;;;;;9.13;7.10;;;15.60;99.90;;;;;;5024776;28;21006;-77
2023/10/01 04:37:41;;;;;;;10.67;7.63;;;15.60;99.90;;;;;;5017965;28;20897;-76
2023/10/01 04:42:56;;;;;;;11.70;7.53;;;15.60;99.90;;;;;;5022042;28;20497;-77
2023/10/01 04:45:25;;;;;;;13.60;7.33;;;15.60;99.90;;;;;;5022108;28;20516;-77
2023/10/01 04:47:56;;;;;;;8.97;7.27;;;15.60;99.90;;;;;;5014686;28;20442;-76
2023/10/01 04:50:27;;;;;;;11.87;7.77;;;15.60;99.90;;;;;;5024403;28;20479;-77
2023/10/01 04:52:55;;;;;;;11.40;7.73;;;15.60;99.90;;;;;;5018421;28;20423;-77
2023/10/01 04:55:22;;;;;;;12.00;7.30;;;15.70;99.90;;;;;;5020009;28;20452;-76
2023/10/01 04:57:48;;;;;;;8.67;7.00;;;15.60;99.90;;;;;;5019868;28;20431;-76
2023/10/01 05:00:14;;;;;;;12.80;8.10;;;15.60;99.90;;;;;;5020001;28;20422;-76
2023/10/01 05:02:43;;;;;;;14.30;7.87;;;15.60;99.90;;;;;;5004122;28;20526;-76
2023/10/01 05:05:11;;;;;;;12.57;7.90;;;15.60;99.90;;;;;;5018208;28;20228;-76
2023/10/01 05:07:36;;;;;;;13.60;7.87;;;15.60;99.90;;;;;;5019113;28;20423;-76
2023/10/01 05:10:04;;;;;;;12.87;7.47;;;15.60;99.90;;;;;;5018054;28;20470;-76
2023/10/01 05:12:31;;;;;;;12.57;8.40;;;15.60;99.90;;;;;;5024107;28;20172;-76
2023/10/01 05:14:59;;;;;;;13.20;7.47;;;15.60;99.90;;;;;;5024691;28;20439;-77
2023/10/01 05:17:30;;;;;;;15.03;6.97;;;15.50;99.90;;;;;;5030968;28;20502;-78
2023/10/01 05:19:58;;;;;;;11.17;7.43;;;15.50;99.90;;;;;;5026690;28;20427;-76
2023/10/01 05:22:25;;;;;;;8.57;6.67;;;15.50;99.90;;;;;;5028545;28;20471;-77
2023/10/01 05:24:50;;;;;;;11.23;7.90;;;15.50;99.90;;;;;;5023451;28;20461;-76
2023/10/01 05:27:18;;;;;;;10.50;7.30;;;15.50;99.90;;;;;;5028485;28;20424;-77
2023/10/01 05:29:48;;;;;;;10.27;6.77;;;15.40;99.90;;;;;;5026480;28;20218;-76
2023/10/01 05:32:18;;;;;;;11.50;7.33;;;15.40;99.90;;;;;;5021196;28;20433;-76
2023/10/01 05:34:46;;;;;;;11.27;7.90;;;15.40;99.90;;;;;;5017026;28;20852;-76
2023/10/01 05:37:24;;;;;;;10.90;7.10;;;15.30;99.90;;;;;;5024513;28;20411;-77
2023/10/01 05:39:57;;;;;;;11.93;7.53;;;15.30;99.90;;;;;;5002029;28;21340;-77
2023/10/01 05:42:28;;;;;;;14.80;7.67;;;15.30;99.90;;;;;;5030043;28;20761;-76
2023/10/01 05:44:59;;;;;;;11.97;7.57;;;15.40;99.90;;;;;;5020292;28;20522;-76
2023/10/01 05:47:41;;;;;;;14.70;8.10;;;15.40;99.90;;;;;;5024900;28;20431;-76
2023/10/01 05:50:14;;;;;;;8.80;6.03;;;15.40;99.90;;;;;;5001118;28;20554;-76
2023/10/01 05:52:45;;;;;;;11.10;7.67;;;15.40;99.90;;;;;;5024215;28;20518;-77
2023/10/01 05:55:22;;;;;;;10.03;6.80;;;15.40;99.90;;;;;;5011024;28;20462;-73
2023/10/01 05:58:12;;;;;;;9.13;6.17;;;15.40;99.90;;;;;;5031488;28;20417;-75
2023/10/01 06:00:56;;;;;;;9.33;6.80;;;15.40;99.90;;;;;;5019014;28;20510;-77
2023/10/01 06:03:26;;;;;;;13.23;7.50;;;15.40;99.90;;;;;;5020780;28;20761;-77
2023/10/01 06:06:13;;;;;;;13.97;9.00;;;15.40;99.90;;;;;;5017779;28;20490;-76
2023/10/01 06:08:46;;;;;;;11.83;7.70;;;15.40;99.90;;;;;;5019541;28;20430;-77
2023/10/01 06:11:18;;;;;;;11.07;6.83;;;15.40;99.90;;;;;;5017988;28;20443;-77
2023/10/01 06:13:49;;;;;;;10.30;7.20;;;15.40;99.90;;;;;;5013399;28;20416;-77
2023/10/01 06:16:16;;;;;;;11.30;7.43;;;15.40;99.90;;;;;;5018294;28;20435;-76
2023/10/01 06:18:52;;;;;;;10.53;7.17;;;15.40;99.90;;;;;;5023085;28;20510;-77
2023/10/01 06:21:25;;;;;;;9.07;6.47;;;15.50;99.90;;;;;;5015894;28;20427;-77
2023/10/01 06:23:52;;;;;;;9.90;7.40;;;15.50;99.90;;;;;;5017913;28;20431;-77
2023/10/01 06:26:33;;;;;;;12.50;7.37;;;15.50;99.90;;;;;;5019103;28;20942;-77
2023/10/01 06:29:01;;;;;;;11.23;6.63;;;15.50;99.90;;;;;;5016904;28;20512;-78
2023/10/01 06:31:27;;;;;;;12.00;7.63;;;15.50;99.90;;;;;;5016199;28;20431;-77
2023/10/01 06:33:56;;;;;;;9.40;7.17;;;15.60;99.90;;;;;;5011316;28;20467;-77
2023/10/01 06:36:23;;;;;;;12.33;8.03;;;15.60;99.90;;;;;;5015909;28;20185;-75
2023/10/01 06:38:53;;;;;;;9.60;6.63;;;15.60;99.90;;;;;;5016733;28;20433;-78
2023/10/01 06:41:25;;;;;;;12.53;7.73;;;15.60;99.90;;;;;;5018892;28;20415;-77
2023/10/01 06:43:56;;;;;;;9.80;7.23;;;15.70;99.90;;;;;;5019836;28;21036;-79
2023/10/01 06:46:28;;;;;;;14.30;8.30;;;15.60;99.90;;;;;;5021685;28;20427;-80
2023/10/01 06:48:56;;;;;;;9.53;7.30;;;15.70;99.90;;;;;;5029564;28;20468;-80
2023/10/01 06:51:24;;;;;;;9.90;7.00;;;15.80;99.90;;;;;;5024117;28;20493;-80
2023/10/01 06:54:05;;;;;;;14.47;8.30;;;15.80;99.90;;;;;;5002991;28;20463;-79
2023/10/01 06:56:38;;;;;;;12.93;7.67;;;15.80;99.90;;;;;;5002715;28;20442;-79
2023/10/01 07:01:42;;;;;;;13.23;7.77;;;15.80;99.90;;;;;;5019798;28;20439;-79
2023/10/01 07:04:09;;;;;;;13.70;8.30;;;15.80;99.90;;;;;;5017939;28;20558;-79
2023/10/01 07:06:36;;;;;;;11.50;7.10;;;15.90;99.90;;;;;;5016039;28;20424;-78
2023/10/01 07:09:07;;;;;;;13.03;9.00;;;15.80;99.90;;;;;;5024646;28;21191;-79
2023/10/01 07:11:36;;;;;;;12.90;8.13;;;15.90;99.90;;;;;;5030362;28;20462;-78
2023/10/01 07:14:05;;;;;;;12.40;7.50;;;15.90;99.90;;;;;;5036849;28;20480;-80
2023/10/01 07:16:39;;;;;;;16.20;8.60;;;16.00;99.90;;;;;;5027094;28;20538;-80
2023/10/01 07:19:11;;;;;;;15.00;8.60;;;15.90;99.90;;;;;;5026394;28;20450;-79
2023/10/01 07:21:41;;;;;;;13.77;8.37;;;16.10;99.90;;;;;;5022375;28;20525;-79
2023/10/01 07:24:10;;;;;;;12.80;8.10;;;16.10;99.90;;;;;;4998383;28;20990;-75
2023/10/01 07:26:40;;;;;;;14.07;8.83;;;16.00;99.90;;;;;;5011098;28;20509;-74
2023/10/01 07:29:08;;;;;;;15.37;8.77;;;16.10;99.90;;;;;;5014224;28;20471;-73
2023/10/01 07:31:37;;;;;;;12.80;7.70;;;16.10;99.90;;;;;;5017956;28;20463;-73
2023/10/01 07:34:12;;;;;;;12.37;7.40;;;16.10;99.90;;;;;;5011063;28;21737;-74
2023/10/01 07:36:42;;;;;;;13.13;8.87;;;16.30;99.90;;;;;;5015298;28;20488;-76
2023/10/01 07:39:13;;;;;;;10.90;8.50;;;16.30;99.90;;;;;;5017641;28;20430;-74
2023/10/01 07:41:44;;;;;;;13.87;7.93;;;16.20;99.90;;;;;;5021242;28;20439;-73
2023/10/01 07:44:12;;;;;;;16.23;8.10;;;16.40;99.90;;;;;;5018943;28;20459;-74
2023/10/01 07:46:38;;;;;;;11.07;8.07;;;16.40;99.90;;;;;;5020060;28;20945;-70
2023/10/01 07:49:04;;;;;;;15.77;8.20;;;16.30;99.90;;;;;;5022559;28;20466;-75
2023/10/01 07:51:39;;;;;;;14.03;8.03;;;16.40;99.90;;;;;;5020998;28;20453;-75
2023/10/01 07:54:12;;;;;;;15.27;7.97;;;16.50;99.90;;;;;;5023393;28;21208;-75
2023/10/01 07:56:49;;;;;;;11.33;7.97;;;16.60;99.90;;;;;;5020716;28;20457;-75
2023/10/01 07:59:28;;;;;;;13.07;8.30;;;16.70;99.90;;;;;;5028657;28;20418;-75
2023/10/01 08:02:21;;;;;;;11.50;7.10;;;16.80;99.90;;;;;;5022403;28;20426;-75
2023/10/01 08:07:17;;;;;;;13.60;8.63;;;16.90;99.90;;;;;;5023079;28;20418;-75
2023/10/01 08:09:51;;;;;;;13.57;8.90;;;16.90;99.90;;;;;;5021050;28;20463;-74
2023/10/01 08:12:28;;;;;;;15.90;8.60;;;16.90;99.90;;;;;;5021181;28;20439;-74
2023/10/01 08:15:15;;;;;;;14.30;8.77;;;17.00;99.90;;;;;;5020787;28;20459;-74
2023/10/01 08:17:43;;;;;;;13.80;8.07;;;17.10;99.90;;;;;;5004477;28;20470;-75
2023/10/01 08:20:21;;;;;;;13.80;8.77;;;17.10;99.90;;;;;;5001090;28;20476;-74
2023/10/01 08:25:42;;;;;;;17.70;8.30;;;17.20;99.90;;;;;;5021958;28;20460;-74
2023/10/01 08:28:29;;;;;;;13.10;8.13;;;17.20;99.90;;;;;;5020869;28;20942;-75
2023/10/01 08:31:43;;;;;;;13.20;8.27;;;17.20;99.90;;;;;;5019702;28;20533;-74
2023/10/01 08:33:51;;;;;;;13.60;7.80;;;17.30;99.90;;;;;;5003826;28;20438;-74
2023/10/01 08:36:24;;;;;;;12.67;7.83;;;17.40;99.90;;;;;;5020016;28;20517;-75
2023/10/01 08:39:20;;;;;;;13.70;7.70;;;17.50;99.90;;;;;;5022877;28;21694;-75
2023/10/01 08:41:56;;;;;;;13.33;7.87;;;17.50;99.90;;;;;;5023091;28;20443;-75
2023/10/01 08:44:30;;;;;;;13.73;7.67;;;17.60;99.90;;;;;;5003526;28;20451;-75
2023/10/01 08:47:01;;;;;;;11.33;7.57;;;17.70;99.90;;;;;;5018421;28;20529;-75
2023/10/01 08:49:31;;;;;;;10.60;7.27;;;17.70;99.90;;;;;;5019772;28;20482;-75
2023/10/01 08:52:19;;;;;;;12.47;7.90;;;17.70;99.90;;;;;;5021686;28;20474;-73
2023/10/01 08:54:45;;;;;;;14.20;8.83;;;17.70;99.90;;;;;;5024910;28;20435;-73
2023/10/01 08:57:17;;;;;;;12.83;8.40;;;17.80;99.90;;;;;;5026466;28;20489;-73
2023/10/01 08:59:46;;;;;;;11.27;8.47;;;17.80;99.90;;;;;;5024198;28;20430;-72
2023/10/01 09:02:17;;;;;;;13.53;8.37;;;17.90;99.90;;;;;;5019762;28;20427;-73
2023/10/01 09:04:45;;;;;;;9.97;6.87;;;18.00;99.90;;;;;;5021326;28;20486;-72
2023/10/01 09:07:18;;;;;;;11.53;7.93;;;18.20;99.90;;;;;;5018067;28;20854;-74
2023/10/01 09:10:07;;;;;;;11.43;7.90;;;18.30;99.90;;;;;;5017197;28;21047;-70
2023/10/01 09:12:45;;;;;;;12.83;8.43;;;18.20;99.90;;;;;;5019356;28;20506;-71
2023/10/01 09:15:27;;;;;;;13.27;7.13;;;18.30;99.90;;;;;;5014408;28;20496;-72
2023/10/01 09:17:56;;;;;;;12.03;7.73;;;18.30;99.90;;;;;;5025603;28;20996;-71
2023/10/01 09:20:50;;;;;;;13.00;6.87;;;18.30;99.90;;;;;;5022854;28;20463;-71
2023/10/01 09:23:15;;;;;;;15.23;8.10;;;18.30;99.90;;;;;;5022568;28;21105;-72
2023/10/01 09:25:42;;;;;;;11.53;6.10;;;18.40;99.90;;;;;;5021933;28;20474;-71
2023/10/01 09:28:20;;;;;;;14.10;8.40;;;18.50;99.90;;;;;;5021582;28;20676;-73
2023/10/01 09:31:21;;;;;;;13.47;9.03;;;18.60;99.90;;;;;;5019475;28;20460;-73
2023/10/01 09:33:48;;;;;;;15.50;7.80;;;18.60;99.90;;;;;;5017474;28;20863;-71
2023/10/01 09:36:45;;;;;;;15.50;8.37;;;18.80;99.90;;;;;;5002403;28;20823;-72
2023/10/01 09:39:13;;;;;;;11.90;7.00;;;18.90;99.90;;;;;;4999914;28;20454;-70
2023/10/01 09:41:42;;;;;;;12.93;7.90;;;19.10;99.90;;;;;;4987630;28;20431;-71
2023/10/01 09:44:14;;;;;;;16.00;8.20;;;19.10;99.90;;;;;;5019291;28;20944;-76
2023/10/01 09:46:42;;;;;;;13.10;7.43;;;19.20;99.90;;;;;;5014606;28;20796;-74
2023/10/01 09:49:08;;;;;;;15.57;7.17;;;19.30;99.90;;;;;;5017086;28;20468;-74
2023/10/01 09:51:41;;;;;;;15.13;9.07;;;19.30;99.90;;;;;;5002869;28;20420;-74
2023/10/01 09:54:13;;;;;;;13.93;7.53;;;19.40;99.90;;;;;;5014300;28;21002;-73
2023/10/01 09:59:11;;;;;;;11.63;7.27;;;19.60;99.90;;;;;;5015144;28;20954;-73
2023/10/01 10:01:38;;;;;;;9.93;6.23;;;19.60;99.90;;;;;;5018128;28;20426;-72
2023/10/01 10:04:12;;;;;;;9.70;6.87;;;19.70;99.90;;;;;;5015791;28;20839;-72
2023/10/01 10:06:41;;;;;;;11.10;7.77;;;19.80;99.90;;;;;;5018368;28;20426;-72
2023/10/01 10:09:26;;;;;;;11.50;7.50;;;19.90;99.90;;;;;;5002686;28;20462;-73
2023/10/01 10:11:52;;;;;;;11.23;7.17;;;20.00;99.90;;;;;;5021325;28;20760;-73
2023/10/01 10:14:36;;;;;;;11.87;8.27;;;20.10;99.90;;;;;;5016195;28;20454;-72
2023/10/01 10:17:18;;;;;;;11.93;7.03;;;20.30;99.90;;;;;;5015720;28;20505;-71
2023/10/01 10:23:14;;;;;;;12.77;6.80;;;20.40;99.90;;;;;;5015515;28;21001;-71
2023/10/01 10:25:40;;;;;;;10.63;7.13;;;20.40;99.90;;;;;;5018684;28;20443;-72
2023/10/01 10:28:09;;;;;;;14.50;8.60;;;20.50;99.90;;;;;;5017806;28;20430;-73
2023/10/01 10:30:34;;;;;;;13.30;6.93;;;20.50;99.90;;;;;;5020598;28;21134;-72
2023/10/01 10:33:15;;;;;;;10.67;7.33;;;20.60;99.90;;;;;;5027661;28;20482;-72
2023/10/01 10:35:47;;;;;;;13.97;9.03;;;20.70;99.90;;;;;;5018507;28;20207;-73
2023/10/01 10:38:51;;;;;;;11.47;6.57;;;20.70;99.90;;;;;;5025164;28;20794;-73
2023/10/01 10:41:17;;;;;;;12.90;6.83;;;20.80;99.90;;;;;;5017978;28;20431;-74
2023/10/01 10:44:08;;;;;;;14.60;7.40;;;20.90;99.90;;;;;;5021349;28;21246;-73
2023/10/01 10:47:00;;;;;;;12.50;7.03;;;21.00;99.90;;;;;;5021374;28;20427;-75
2023/10/01 10:49:56;;;;;;;12.50;7.00;;;21.20;99.90;;;;;;5013925;28;20471;-75
2023/10/01 10:52:32;;;;;;;9.30;6.30;;;21.20;99.90;;;;;;5021869;28;20462;-73
2023/10/01 10:55:18;;;;;;;9.00;6.43;;;21.20;99.90;;;;;;5013047;28;20518;-73
2023/10/01 10:57:51;;;;;;;12.23;5.97;;;21.20;99.90;;;;;;5003479;28;20787;-74
2023/10/01 11:00:24;;;;;;;15.27;8.23;;;21.30;99.90;;;;;;5023699;28;21101;-74
2023/10/01 11:02:56;;;;;;;10.90;6.07;;;21.40;99.90;;;;;;5015699;28;20430;-72
2023/10/01 11:05:37;;;;;;;11.13;7.17;;;21.40;99.90;;;;;;5021924;28;20473;-72
2023/10/01 11:08:03;;;;;;;10.30;6.47;;;21.50;99.90;;;;;;5017973;28;20421;-72
2023/10/01 11:10:45;;;;;;;10.17;6.57;;;21.60;99.90;;;;;;5019930;28;20456;-72
2023/10/01 11:13:13;;;;;;;12.77;7.97;;;21.70;99.90;;;;;;5016824;28;20176;-73
2023/10/01 11:15:42;;;;;;;11.23;7.07;;;21.80;99.90;;;;;;5020641;28;20868;-73
2023/10/01 11:18:11;;;;;;;11.37;7.23;;;21.90;99.90;;;;;;5022185;28;20407;-71
2023/10/01 11:20:45;;;;;;;14.73;6.80;;;22.00;99.90;;;;;;5021920;28;20498;-72
2023/10/01 11:23:11;;;;;;;11.67;7.47;;;22.10;99.90;;;;;;5020190;28;20435;-73
2023/10/01 11:25:40;;;;;;;11.23;7.40;;;22.20;99.90;;;;;;5020254;28;20903;-72
2023/10/01 11:28:06;;;;;;;11.77;6.97;;;22.30;99.90;;;;;;5025366;28;20459;-73
2023/10/01 11:30:42;;;;;;;10.03;6.90;;;22.40;99.90;;;;;;5019899;28;20545;-72
2023/10/01 11:35:37;;;;;;;11.10;6.90;;;22.80;99.90;;;;;;5017689;28;20851;-72
2023/10/01 11:38:32;;;;;;;13.13;7.00;;;22.80;99.90;;;;;;5021658;28;20807;-72
2023/10/01 11:41:09;;;;;;;8.93;6.50;;;23.00;99.90;;;;;;5019045;28;20438;-73
2023/10/01 11:43:58;;;;;;;12.33;7.20;;;23.20;99.90;;;;;;5017905;28;20960;-72
2023/10/01 11:46:32;;;;;;;10.73;6.80;;;23.40;99.90;;;;;;5020756;28;21056;-72
2023/10/01 11:49:09;;;;;;;12.50;8.27;;;23.60;99.90;;;;;;5018971;28;20439;-72
2023/10/01 11:52:01;;;;;;;11.93;7.30;;;24.30;99.90;;;;;;5017307;28;20399;-73
2023/10/01 11:54:44;;;;;;;9.37;7.00;;;27.20;99.90;;;;;;5021984;28;20431;-74
2023/10/01 11:57:22;;;;;;;10.37;7.30;;;30.40;99.90;;;;;;5018084;28;20419;-73
2023/10/01 11:59:55;;;;;;;11.73;7.87;;;32.80;92.10;;;;;;5020627;28;20445;-74
2023/10/01 12:02:33;;;;;;;12.80;7.80;;;34.90;82.50;;;;;;5021481;28;20438;-74
2023/10/01 12:05:06;;;;;;;8.53;6.80;;;36.90;68.40;;;;;;5015606;28;20462;-75
2023/10/01 12:07:45;;;;;;;9.67;6.80;;;38.40;60.60;;;;;;5020714;28;20397;-75
2023/10/01 12:10:34;;;;;;;10.30;7.17;;;39.70;55.20;;;;;;5019913;28;21089;-75
2023/10/01 12:13:02;;;;;;;10.80;7.43;;;41.20;52.40;;;;;;5019407;28;20983;-74
2023/10/01 12:15:34;;;;;;;10.33;7.70;;;42.60;49.10;;;;;;5017519;28;20447;-74
2023/10/01 12:18:08;;;;;;;9.40;7.60;;;43.60;46.20;;;;;;5022034;28;20427;-74
2023/10/01 12:20:39;;;;;;;9.10;7.63;;;44.50;43.50;;;;;;5019481;28;20427;-72
2023/10/01 12:23:12;;;;;;;9.07;6.97;;;45.30;41.70;;;;;;5001609;28;20472;-71
2023/10/01 12:25:52;;;;;;;9.13;7.03;;;46.00;40.40;;;;;;5006171;28;20472;-73
2023/10/01 12:28:25;;;;;;;8.77;7.63;;;46.80;38.70;;;;;;5017545;28;20434;-71
2023/10/01 12:30:57;;;;;;;12.50;7.67;;;47.30;37.00;;;;;;5016970;28;20517;-73
2023/10/01 12:33:38;;;;;;;9.52;7.65;;;47.80;35.90;;;;;;5021251;28;20226;-74
2023/10/01 12:36:11;;;;;;;8.48;6.97;;;48.30;35.30;;;;;;5025320;28;20195;-73
2023/10/01 12:38:37;;;;;;;8.38;6.95;;;48.90;33.70;;;;;;5006103;28;20191;-72
2023/10/01 12:41:04;;;;;;;9.02;7.78;;;49.00;32.90;;;;;;5023331;28;20606;-73
2023/10/01 12:43:39;;;;;;;8.77;7.55;;;49.30;32.00;;;;;;5020556;28;20608;-74
2023/10/01 12:46:09;;;;;;;9.00;7.38;;;49.30;31.40;;;;;;5026338;28;20241;-72
2023/10/01 12:48:36;;;;;;;8.10;7.30;;;49.20;30.80;;;;;;5026578;28;20176;-73
2023/10/01 12:51:07;;;;;;;8.82;7.55;;;49.10;30.00;;;;;;5028500;28;20215;-73
2023/10/01 12:53:47;;;;;;;11.30;7.90;;;48.70;30.00;;;;;;5022869;28;20176;-73
2023/10/01 12:56:14;;;;;;;10.40;7.43;;;47.90;30.10;;;;;;5025342;28;20187;-75
2023/10/01 12:58:51;;;;;;;9.75;7.47;;;46.30;30.50;;;;;;5019935;28;20180;-74
2023/10/01 13:01:34;;;;;;;12.83;7.73;;;44.90;31.10;;;;;;5021780;28;20621;-74
2023/10/01 13:06:47;;;;;;;9.77;7.63;;;42.30;33.00;;;;;;5019588;28;20488;-72
2023/10/01 13:09:57;;;;;;;11.63;7.67;;;42.40;34.00;;;;;;5031207;28;20501;-73
2023/10/01 13:12:14;;;;;;;7.63;6.80;;;42.90;34.20;;;;;;5015663;28;20423;-72
2023/10/01 13:14:41;;;;;;;9.10;6.97;;;43.70;34.70;;;;;;5005089;28;20454;-73
2023/10/01 13:17:19;;;;;;;9.03;7.50;;;43.90;33.90;;;;;;5022508;28;20434;-72
2023/10/01 13:19:48;;;;;;;8.87;7.83;;;44.10;33.80;;;;;;5015583;28;20430;-72
2023/10/01 13:22:18;;;;;;;10.30;8.40;;;44.10;33.70;;;;;;5022621;28;20497;-73
2023/10/01 13:24:53;;;;;;;9.77;7.77;;;44.00;33.30;;;;;;5023170;28;20458;-73
2023/10/01 13:27:20;;;;;;;8.73;7.70;;;43.70;33.40;;;;;;5021764;28;20434;-72
2023/10/01 13:29:49;;;;;;;8.43;7.10;;;43.10;34.50;;;;;;5032310;28;20897;-72
2023/10/01 13:32:16;;;;;;;10.83;7.40;;;42.40;34.80;;;;;;5019389;28;20521;-72
2023/10/01 13:34:48;;;;;;;10.30;8.90;;;41.70;35.40;;;;;;5020234;28;20455;-73